Time;durP1;ratioP1;P1;durP2;ratioP2;P2;SDS_P1;SDS_P2;PMS_P1;PMS_P2;Temp;Humidity;BMP_temperature;BMP_pressure;BME280_temperature;BME280_humidity;BME280_pressure;Samples;Min_cycle;Max_cycle;Signal;HPM_P1;HPM_P2
2021/10/25 00:01:57;;;;;;;2.10;1.30;;;;;;;21.07;23.32;102055.97;5069447;28;20060;-52
2021/10/25 00:04:25;;;;;;;2.92;1.50;;;;;;;21.07;23.28;102049.72;5060121;28;20063;-54
2021/10/25 00:06:54;;;;;;;2.67;1.40;;;;;;;21.07;23.29;102047.88;5076686;28;20500;-48
2021/10/25 00:09:22;;;;;;;2.17;1.50;;;;;;;21.08;23.34;102046.03;5083205;28;20059;-51
2021/10/25 00:11:51;;;;;;;2.45;1.58;;;;;;;21.07;23.37;102038.88;5078379;28;20404;-49
2021/10/25 00:14:19;;;;;;;2.38;1.67;;;;;;;21.07;23.32;102034.34;5088387;28;20528;-54
2021/10/25 00:16:47;;;;;;;2.90;1.60;;;;;;;21.07;23.32;102033.47;5072512;28;20052;-56
2021/10/25 00:19:16;;;;;;;1.92;1.30;;;;;;;21.08;23.41;102029.81;5088648;28;20075;-53
2021/10/25 00:21:45;;;;;;;3.45;1.70;;;;;;;21.07;23.45;102026.22;5076727;28;20060;-55
2021/10/25 00:24:14;;;;;;;1.58;1.10;;;;;;;21.08;23.34;102027.97;5072530;28;20524;-52
2021/10/25 00:26:42;;;;;;;2.65;1.33;;;;;;;21.06;23.36;102018.19;5068372;28;20048;-51
2021/10/25 00:29:12;;;;;;;2.65;1.95;;;;;;;21.06;23.50;102018.19;5074581;28;20139;-54
2021/10/25 00:31:40;;;;;;;3.00;1.30;;;;;;;21.07;23.37;102007.28;5064942;28;20063;-50
2021/10/25 00:34:08;;;;;;;2.35;1.58;;;;;;;21.04;23.48;101996.63;5078200;28;20492;-53
2021/10/25 00:36:36;;;;;;;2.65;1.33;;;;;;;21.06;23.51;102000.13;5066269;28;20061;-57
2021/10/25 00:39:07;;;;;;;3.17;1.58;;;;;;;21.07;23.61;101991.06;5084953;28;20048;-53
2021/10/25 00:41:35;;;;;;;2.47;1.70;;;;;;;21.07;23.52;101990.19;5078845;28;20052;-50
2021/10/25 00:44:02;;;;;;;2.50;1.33;;;;;;;21.07;23.52;101982.06;5073364;28;20075;-53
2021/10/25 00:46:32;;;;;;;2.20;1.45;;;;;;;21.07;23.58;101982.94;5071073;28;20374;-52
2021/10/25 00:49:02;;;;;;;1.70;1.15;;;;;;;21.07;23.65;101977.53;5062326;28;20409;-58
2021/10/25 00:51:30;;;;;;;3.67;1.63;;;;;;;21.07;23.70;101973.94;5081834;28;20551;-47
2021/10/25 00:53:57;;;;;;;2.28;1.33;;;;;;;21.07;23.64;101972.13;5078207;28;20055;-56
2021/10/25 00:56:27;;;;;;;2.50;1.35;;;;;;;21.07;23.64;101968.53;5098318;28;20200;-54
2021/10/25 00:58:54;;;;;;;2.78;1.40;;;;;;;21.07;23.78;101958.59;5060307;28;20060;-55
2021/10/25 01:01:22;;;;;;;2.17;1.10;;;;;;;21.07;23.66;101950.47;5067956;28;20528;-52
2021/10/25 01:03:52;;;;;;;2.28;1.27;;;;;;;21.07;23.68;101949.59;5061824;28;20506;-55
2021/10/25 01:06:20;;;;;;;2.38;1.38;;;;;;;21.07;23.81;101947.75;5079968;28;20056;-54
2021/10/25 01:08:48;;;;;;;2.72;1.58;;;;;;;21.05;23.84;101935.28;5081596;28;20055;-54
2021/10/25 01:11:17;;;;;;;2.63;1.38;;;;;;;21.07;23.70;101939.66;5070224;28;20055;-52
2021/10/25 01:13:45;;;;;;;2.30;1.48;;;;;;;21.06;23.82;101934.31;5080166;28;20052;-51
2021/10/25 01:16:12;;;;;;;1.55;1.10;;;;;;;21.05;23.91;101933.44;5055979;28;20417;-46
2021/10/25 01:18:40;;;;;;;2.25;1.50;;;;;;;21.05;23.82;101922.63;5072289;28;20485;-53
2021/10/25 01:21:09;;;;;;;1.95;1.48;;;;;;;21.07;23.91;101936.06;5062284;28;20899;-52
2021/10/25 01:23:37;;;;;;;3.28;1.40;;;;;;;21.06;23.89;101915.38;5068283;28;20731;-52
2021/10/25 01:26:05;;;;;;;1.90;1.10;;;;;;;20.98;23.87;101894.16;5051776;28;20063;-52
2021/10/25 01:28:34;;;;;;;1.85;1.27;;;;;;;21.07;23.75;101911.72;5051712;28;20520;-54
2021/10/25 01:31:03;;;;;;;1.77;1.10;;;;;;;21.06;23.96;101905.44;5078541;28;20056;-51
2021/10/25 01:33:33;;;;;;;1.52;0.90;;;;;;;21.06;23.96;101899.13;5072216;28;20374;-50
2021/10/25 01:36:03;;;;;;;2.15;1.10;;;;;;;21.07;23.91;101901.78;5075694;28;20541;-52
2021/10/25 01:38:32;;;;;;;2.00;1.17;;;;;;;21.08;24.05;101897.22;5073560;28;20066;-48
2021/10/25 01:41:01;;;;;;;2.42;1.40;;;;;;;21.06;24.06;101899.13;5053447;28;20049;-49
2021/10/25 01:43:28;;;;;;;1.85;1.05;;;;;;;21.07;24.09;101895.50;5079593;28;20052;-51
2021/10/25 01:45:59;;;;;;;2.05;1.20;;;;;;;21.05;24.04;101876.63;5062418;28;20139;-58
2021/10/25 01:48:26;;;;;;;1.33;0.93;;;;;;;21.04;24.09;101885.72;5074373;28;20051;-52
2021/10/25 01:50:54;;;;;;;1.52;1.00;;;;;;;21.04;23.96;101877.59;5081618;28;20056;-55
2021/10/25 01:53:23;;;;;;;1.75;1.05;;;;;;;21.07;24.08;101873.84;5078303;28;20056;-53
2021/10/25 01:56:00;;;;;;;2.60;1.25;;;;;;;21.03;24.05;101865.03;5087072;28;20053;-54
2021/10/25 01:58:33;;;;;;;1.83;1.23;;;;;;;21.05;24.07;101860.41;5071864;28;20430;-52
2021/10/25 02:01:07;;;;;;;1.60;1.13;;;;;;;21.06;24.10;101855.84;5083342;28;20182;-50
2021/10/25 02:03:36;;;;;;;2.00;1.30;;;;;;;21.06;24.02;101850.44;5079116;28;20064;-54
2021/10/25 02:06:18;;;;;;;2.55;1.00;;;;;;;21.04;24.07;101845.13;5084235;28;20048;-55
2021/10/25 02:08:47;;;;;;;2.65;1.20;;;;;;;21.00;24.04;101846.28;5087277;28;20056;-55
2021/10/25 02:11:19;;;;;;;1.50;0.98;;;;;;;21.04;24.08;101846.97;5073694;28;20055;-55
2021/10/25 02:13:56;;;;;;;1.80;0.90;;;;;;;21.06;24.07;101853.16;5064280;28;20057;-57
2021/10/25 02:16:24;;;;;;;1.58;1.00;;;;;;;21.04;24.23;101845.13;5077344;28;20056;-56
2021/10/25 02:18:52;;;;;;;1.42;1.00;;;;;;;21.05;24.13;101841.47;5070227;28;20049;-56
2021/10/25 02:21:25;;;;;;;1.80;1.10;;;;;;;21.06;24.25;101828.78;5073741;28;20060;-55
2021/10/25 02:23:53;;;;;;;1.30;0.90;;;;;;;21.06;24.23;101834.22;5079592;28;20059;-50
2021/10/25 02:26:23;;;;;;;2.15;0.90;;;;;;;21.06;24.16;101832.41;5077179;28;20056;-52
2021/10/25 02:28:51;;;;;;;1.52;0.85;;;;;;;21.06;24.16;101829.69;5076352;28;20063;-54
2021/10/25 02:31:19;;;;;;;1.73;1.20;;;;;;;21.05;24.29;101824.34;5067183;28;20060;-50
2021/10/25 02:33:47;;;;;;;1.55;1.10;;;;;;;21.06;24.31;101810.75;5068551;28;20063;-56
2021/10/25 02:36:17;;;;;;;1.65;1.27;;;;;;;21.05;24.27;101818.94;5080658;28;20138;-52
2021/10/25 02:38:44;;;;;;;1.65;0.88;;;;;;;21.04;24.20;101815.38;5080272;28;20060;-55
2021/10/25 02:41:12;;;;;;;1.90;1.10;;;;;;;21.04;24.21;101806.38;5068108;28;20060;-55
2021/10/25 02:43:43;;;;;;;1.55;1.00;;;;;;;21.05;24.29;101816.25;5070125;28;20099;-55
2021/10/25 02:46:13;;;;;;;1.70;1.10;;;;;;;21.05;24.40;101810.84;5083508;28;20056;-51
2021/10/25 02:48:45;;;;;;;2.60;1.30;;;;;;;21.04;24.31;101807.25;5080091;28;20052;-50
2021/10/25 02:51:15;;;;;;;2.25;1.08;;;;;;;21.05;24.39;101806.28;5080485;28;20055;-55
2021/10/25 02:53:43;;;;;;;2.55;1.23;;;;;;;21.04;24.32;101796.44;5075670;28;20063;-51
2021/10/25 02:56:11;;;;;;;1.60;1.08;;;;;;;21.06;24.42;101799.94;5080600;28;20052;-55
2021/10/25 02:58:39;;;;;;;3.00;1.40;;;;;;;21.04;24.40;101796.44;5070076;28;20044;-53
2021/10/25 03:01:08;;;;;;;2.00;1.25;;;;;;;21.05;24.48;101789.19;5066703;28;20057;-52
2021/10/25 03:03:38;;;;;;;1.10;0.80;;;;;;;21.05;24.46;101794.59;5064117;28;20056;-56
2021/10/25 03:06:06;;;;;;;1.95;1.10;;;;;;;20.96;24.36;101767.13;5076357;28;20059;-49
2021/10/25 03:08:33;;;;;;;2.30;1.05;;;;;;;21.06;24.40;101777.41;5070010;28;20044;-51
2021/10/25 03:11:01;;;;;;;2.53;0.88;;;;;;;21.05;24.42;101779.22;5078975;28;20493;-53
2021/10/25 03:13:30;;;;;;;1.63;0.90;;;;;;;21.05;24.60;101773.81;5069824;28;20052;-52
2021/10/25 03:16:01;;;;;;;1.90;1.20;;;;;;;21.02;24.60;101765.03;5066997;28;20060;-54
2021/10/25 03:18:30;;;;;;;1.15;0.77;;;;;;;21.05;24.53;101764.84;5068646;28;20048;-58
2021/10/25 03:20:58;;;;;;;1.45;0.73;;;;;;;21.05;24.52;101765.72;5071981;28;20052;-51
2021/10/25 03:23:28;;;;;;;1.25;1.00;;;;;;;21.05;24.66;101754.88;5044753;28;20060;-50
2021/10/25 03:25:56;;;;;;;2.28;1.15;;;;;;;21.04;24.57;101753.16;5060271;28;20509;-55
2021/10/25 03:28:26;;;;;;;2.03;0.85;;;;;;;21.05;24.61;101743.19;5054161;28;20454;-55
2021/10/25 03:30:54;;;;;;;2.33;1.00;;;;;;;21.06;24.68;101742.22;5063832;28;20060;-54
2021/10/25 03:33:22;;;;;;;1.10;0.80;;;;;;;21.04;24.60;101733.34;5068943;28;20048;-51
2021/10/25 03:36:11;;;;;;;1.45;1.08;;;;;;;21.05;24.63;101719.72;5071830;28;20060;-52
2021/10/25 03:38:40;;;;;;;1.73;1.00;;;;;;;21.05;24.74;101727.84;5072950;28;20839;-53
2021/10/25 03:41:13;;;;;;;1.33;0.88;;;;;;;21.03;24.70;101721.66;5076980;28;20075;-52
2021/10/25 03:43:47;;;;;;;1.58;1.08;;;;;;;21.03;24.72;101713.53;5092222;28;20068;-50
2021/10/25 03:46:21;;;;;;;1.58;1.05;;;;;;;21.04;24.85;101704.47;5069874;28;20056;-50
2021/10/25 03:48:53;;;;;;;1.45;0.95;;;;;;;21.05;24.73;101708.03;5062031;28;20059;-52
2021/10/25 03:51:22;;;;;;;1.58;0.90;;;;;;;21.03;24.82;101700.03;5061964;28;20061;-51
2021/10/25 03:53:59;;;;;;;1.42;0.85;;;;;;;21.06;24.77;101701.66;5064456;28;20056;-54
2021/10/25 03:56:40;;;;;;;2.13;0.90;;;;;;;21.06;24.85;101704.34;5061437;28;20057;-52
2021/10/25 04:02:09;;;;;;;2.30;1.20;;;;;;;21.06;25.00;101693.53;5052580;28;20079;-52
2021/10/25 04:13:36;;;;;;;;;;;;;;;21.11;24.73;101670.66;5067058;28;20060;-53
2021/10/25 04:25:35;;;;;;;1.80;1.08;;;;;;;21.05;25.07;101653.94;5069253;28;20061;-52
2021/10/25 04:28:06;;;;;;;1.83;1.10;;;;;;;21.03;25.01;101643.22;5076305;28;20529;-57
2021/10/25 04:30:35;;;;;;;1.38;0.93;;;;;;;21.04;25.12;101630.56;5067977;28;20052;-51
2021/10/25 04:33:03;;;;;;;1.40;0.90;;;;;;;20.95;25.17;101619.34;5060440;28;20057;-58
2021/10/25 04:35:47;;;;;;;1.67;1.05;;;;;;;21.02;25.25;101627.06;5080528;28;20053;-54
2021/10/25 04:38:28;;;;;;;1.15;0.88;;;;;;;21.02;25.25;101638.75;5056446;28;20421;-52
2021/10/25 04:40:57;;;;;;;1.88;1.10;;;;;;;21.01;25.20;101633.44;5070511;28;20056;-53
2021/10/25 04:43:26;;;;;;;2.05;1.27;;;;;;;20.95;25.25;101624.75;5088678;28;20063;-49
2021/10/25 04:45:54;;;;;;;1.73;1.10;;;;;;;21.03;25.32;101637.81;5085796;28;20056;-51
2021/10/25 04:48:21;;;;;;;1.67;0.98;;;;;;;20.90;25.37;101612.47;5064088;28;20060;-56
2021/10/25 04:51:04;;;;;;;1.30;0.95;;;;;;;21.02;25.45;101644.16;5074166;28;20071;-51
2021/10/25 04:53:50;;;;;;;2.03;1.00;;;;;;;21.04;25.40;101636.84;5061048;28;20409;-48
2021/10/25 04:56:24;;;;;;;1.80;0.95;;;;;;;21.03;25.43;101623.41;5058796;28;20053;-55
2021/10/25 04:58:52;;;;;;;1.67;1.27;;;;;;;21.04;25.42;101619.72;5062839;28;20057;-52
2021/10/25 05:01:20;;;;;;;1.42;0.98;;;;;;;21.04;25.48;101620.59;5072079;28;20052;-52
2021/10/25 05:03:49;;;;;;;1.30;0.77;;;;;;;21.04;25.54;101620.59;5074060;28;20071;-50
2021/10/25 05:06:18;;;;;;;1.38;0.90;;;;;;;21.06;25.48;101620.50;5035037;28;20052;-49
2021/10/25 05:08:47;;;;;;;1.92;0.95;;;;;;;21.04;25.65;101630.56;5046302;28;20049;-54
2021/10/25 05:11:17;;;;;;;2.00;0.93;;;;;;;21.04;25.65;101647.66;5060835;28;20053;-50
2021/10/25 05:13:46;;;;;;;1.67;0.80;;;;;;;21.06;25.58;101636.72;5067898;28;20051;-56
2021/10/25 05:16:14;;;;;;;1.88;0.98;;;;;;;21.05;25.67;101635.84;5055292;28;20056;-54
2021/10/25 05:18:48;;;;;;;2.28;1.33;;;;;;;21.05;25.63;101630.44;5053742;28;20059;-51
2021/10/25 05:21:17;;;;;;;1.92;0.75;;;;;;;21.04;25.74;101628.72;5064853;28;20063;-50
2021/10/25 05:23:45;;;;;;;1.88;1.30;;;;;;;21.05;25.79;101616.91;5042628;28;20067;-54
2021/10/25 05:26:13;;;;;;;2.22;1.23;;;;;;;21.05;25.67;101608.81;5061094;28;20072;-54
2021/10/25 05:28:41;;;;;;;1.70;1.15;;;;;;;21.05;25.81;101603.41;5064719;28;20041;-53
2021/10/25 05:31:11;;;;;;;1.27;0.88;;;;;;;21.05;25.85;101595.28;5064541;28;20408;-48
2021/10/25 05:33:42;;;;;;;1.80;1.10;;;;;;;21.06;25.93;101593.44;5067003;28;20048;-54
2021/10/25 05:36:10;;;;;;;2.33;1.00;;;;;;;21.06;25.89;101593.44;5064630;28;20052;-53
2021/10/25 05:38:38;;;;;;;1.67;1.10;;;;;;;21.04;25.95;101596.25;5066450;28;20060;-52
2021/10/25 05:41:11;;;;;;;1.92;1.00;;;;;;;21.06;25.98;101579.91;5057542;28;20064;-54
2021/10/25 05:43:41;;;;;;;1.40;0.88;;;;;;;21.05;26.09;101576.34;5067844;28;20049;-55
2021/10/25 05:46:10;;;;;;;1.88;1.30;;;;;;;21.05;26.12;101583.59;5061326;28;20056;-57
2021/10/25 05:48:41;;;;;;;2.53;1.00;;;;;;;21.05;26.06;101587.16;5054705;28;20048;-52
2021/10/25 05:51:12;;;;;;;2.38;1.55;;;;;;;21.05;26.00;101595.28;5038201;28;20049;-51
2021/10/25 05:53:40;;;;;;;2.50;1.48;;;;;;;21.05;26.13;101595.28;5057388;28;20060;-53
2021/10/25 05:56:09;;;;;;;2.60;1.33;;;;;;;21.04;26.19;101580.03;5058604;28;20068;-55
2021/10/25 05:58:38;;;;;;;1.50;1.10;;;;;;;21.03;26.17;101580.13;5058193;28;20060;-57
2021/10/25 06:01:11;;;;;;;1.95;0.95;;;;;;;21.05;26.25;101576.34;5057436;28;20052;-49
2021/10/25 06:04:08;;;;;;;2.30;1.48;;;;;;;21.07;26.19;101576.25;5056117;28;20131;-55
2021/10/25 06:06:40;;;;;;;1.83;1.05;;;;;;;21.06;26.28;101564.56;5050555;28;20059;-52
2021/10/25 06:09:08;;;;;;;1.50;1.10;;;;;;;21.05;26.46;101565.53;5044753;28;20052;-57
2021/10/25 06:11:37;;;;;;;2.13;1.00;;;;;;;21.06;26.47;101566.38;5056943;28;20666;-52
2021/10/25 06:14:07;;;;;;;1.33;1.00;;;;;;;21.05;26.41;101564.66;5059897;28;20061;-55
2021/10/25 06:16:38;;;;;;;1.52;1.10;;;;;;;21.04;26.40;101561.09;5058080;28;20049;-57
2021/10/25 06:19:10;;;;;;;1.65;1.15;;;;;;;21.02;26.48;101554.03;5042090;28;20053;-54
2021/10/25 06:21:40;;;;;;;1.80;0.85;;;;;;;21.06;26.53;101552.84;5063037;28;20085;-55
2021/10/25 06:24:10;;;;;;;1.67;1.45;;;;;;;21.07;26.60;101551.91;5056874;28;20048;-54
2021/10/25 06:26:53;;;;;;;1.75;0.90;;;;;;;21.06;26.51;101552.84;5062430;28;20056;-51
2021/10/25 06:29:20;;;;;;;2.67;1.48;;;;;;;21.04;26.55;101541.28;5057933;28;20417;-52
2021/10/25 06:31:51;;;;;;;1.50;1.08;;;;;;;21.05;26.60;101543.00;5056910;28;20053;-56
2021/10/25 06:34:23;;;;;;;1.77;1.10;;;;;;;21.04;26.54;101544.84;5054966;28;20424;-58
2021/10/25 06:37:10;;;;;;;2.25;1.02;;;;;;;21.06;26.69;101542.94;5058433;28;20052;-53
2021/10/25 06:39:54;;;;;;;2.20;1.35;;;;;;;21.05;26.64;101552.00;5053321;28;20045;-53
2021/10/25 06:42:24;;;;;;;2.00;1.20;;;;;;;21.06;26.83;101548.34;5049905;28;20067;-57
2021/10/25 06:45:16;;;;;;;1.92;1.15;;;;;;;21.07;26.87;101550.06;5055172;28;20055;-55
2021/10/25 06:47:48;;;;;;;1.33;1.10;;;;;;;21.06;26.83;101552.84;5061734;28;20068;-51
2021/10/25 06:50:19;;;;;;;2.20;1.35;;;;;;;21.06;26.87;101550.16;5048818;28;20059;-53
2021/10/25 06:52:53;;;;;;;2.42;1.35;;;;;;;21.06;27.00;101544.75;5050152;28;20052;-48
2021/10/25 06:55:25;;;;;;;1.80;1.10;;;;;;;21.06;26.93;101547.44;5054885;28;20414;-55
2021/10/25 06:58:00;;;;;;;2.58;1.13;;;;;;;21.06;26.91;101547.44;5047999;28;20065;-56
2021/10/25 07:00:31;;;;;;;1.90;1.00;;;;;;;21.06;26.96;101521.28;5051894;28;20044;-51
2021/10/25 07:03:01;;;;;;;1.77;1.02;;;;;;;21.06;26.89;101520.41;5053341;28;20072;-54
2021/10/25 07:05:35;;;;;;;1.85;0.95;;;;;;;21.07;27.11;101533.84;5053500;28;20751;-52
2021/10/25 07:08:05;;;;;;;1.42;1.10;;;;;;;21.07;27.00;101531.13;5029334;28;20059;-56
2021/10/25 07:10:34;;;;;;;1.67;1.13;;;;;;;21.06;27.17;101542.94;5049239;28;20052;-50
2021/10/25 07:13:02;;;;;;;1.77;1.20;;;;;;;21.07;27.22;101519.44;5043055;28;20519;-55
2021/10/25 07:15:32;;;;;;;2.05;1.35;;;;;;;21.05;27.11;101519.53;5044457;28;20089;-57
2021/10/25 07:18:07;;;;;;;1.98;1.10;;;;;;;20.85;27.36;101491.06;5047708;28;20532;-48
2021/10/25 07:20:47;;;;;;;2.05;1.10;;;;;;;21.14;27.31;101518.09;5066623;28;20052;-57
2021/10/25 08:06:47;;;;;;;2.22;0.90;;;;;;;21.55;30.43;101498.31;5077172;28;20096;-52
2021/10/25 08:09:24;;;;;;;1.45;0.85;;;;;;;21.60;30.66;101504.31;5057646;28;21933;-54
2021/10/25 08:11:57;;;;;;;1.55;0.80;;;;;;;21.63;30.49;101501.41;5063128;28;20108;-53
2021/10/25 08:14:31;;;;;;;1.25;1.10;;;;;;;21.62;30.56;101497.84;5055960;28;20098;-51
2021/10/25 08:16:59;;;;;;;1.77;1.00;;;;;;;21.67;30.71;101494.81;5065585;28;20051;-53
2021/10/25 08:19:28;;;;;;;1.75;0.95;;;;;;;21.68;30.83;101494.69;5064804;28;20066;-53
2021/10/25 08:21:58;;;;;;;2.30;1.00;;;;;;;21.70;30.78;101491.91;5069120;27;20532;-52
2021/10/25 08:24:28;;;;;;;2.47;1.30;;;;;;;21.71;30.96;101484.66;5060077;28;20063;-54
2021/10/25 08:27:36;;;;;;;1.90;0.90;;;;;;;21.74;31.25;101489.88;5042195;28;20066;-51
2021/10/25 08:30:05;;;;;;;1.67;0.98;;;;;;;21.73;31.24;101483.59;5061626;28;20087;-55
2021/10/25 08:32:59;;;;;;;3.20;1.20;;;;;;;21.74;31.37;101479.03;5080770;28;20048;-54
2021/10/25 08:41:20;;;;;;;3.47;1.08;;;;;;;21.73;31.96;101472.75;5045203;28;20055;-56
2021/10/25 08:43:51;;;;;;;2.15;1.02;;;;;;;21.72;31.98;101479.13;5038764;28;20056;-54
2021/10/25 08:46:20;;;;;;;2.60;1.20;;;;;;;21.70;31.67;101472.09;5072898;28;20754;-55
2021/10/25 08:48:48;;;;;;;2.60;0.95;;;;;;;21.73;31.90;101474.56;5079077;28;20070;-53
2021/10/25 08:51:18;;;;;;;2.08;1.10;;;;;;;21.74;32.11;101469.06;5069222;28;21103;-61
2021/10/25 08:53:48;;;;;;;2.58;1.15;;;;;;;21.82;32.40;101469.41;5081626;27;20092;-52
2021/10/25 08:56:18;;;;;;;5.20;1.10;;;;;;;21.79;32.26;101460.63;5078929;28;20052;-54
2021/10/25 08:59:13;;;;;;;2.67;0.90;;;;;;;21.84;32.21;101461.19;5044615;28;20051;-55
2021/10/25 09:01:41;;;;;;;3.25;0.90;;;;;;;21.77;32.37;101449.03;5061692;28;20082;-55
2021/10/25 09:04:24;;;;;;;3.00;0.80;;;;;;;21.81;32.51;101461.41;5064439;27;20806;-55
2021/10/25 09:06:59;;;;;;;1.92;0.80;;;;;;;21.86;32.39;101456.53;5049569;28;20724;-51
2021/10/25 09:09:29;;;;;;;1.40;1.02;;;;;;;21.90;32.67;101449.91;5060209;27;20094;-53
2021/10/25 09:12:00;;;;;;;2.80;1.00;;;;;;;21.98;32.41;101455.69;5057030;27;20532;-52
2021/10/25 09:14:30;;;;;;;2.50;1.13;;;;;;;22.03;32.87;101464.38;5060123;28;20064;-54
2021/10/25 09:17:03;;;;;;;2.08;1.05;;;;;;;22.05;32.86;101448.03;5085623;27;20063;-53
2021/10/25 09:20:08;;;;;;;2.65;1.23;;;;;;;22.07;32.99;101440.66;5064916;27;20062;-52
2021/10/25 09:22:37;;;;;;;5.53;1.10;;;;;;;22.09;33.06;101442.28;5039246;28;20052;-57
2021/10/25 09:25:06;;;;;;;3.47;0.88;;;;;;;22.12;33.13;101443.91;5057450;27;20400;-57
2021/10/25 09:27:47;;;;;;;6.60;1.23;;;;;;;22.14;33.40;101440.16;5048466;27;20814;-52
2021/10/25 09:30:41;;;;;;;4.65;1.63;;;;;;;22.14;33.47;101444.66;5054056;28;20052;-57
2021/10/25 09:33:18;;;;;;;5.20;1.40;;;;;;;22.14;33.57;101450.09;5050123;27;20052;-54
2021/10/25 09:35:58;;;;;;;4.55;1.48;;;;;;;22.14;33.58;101444.66;5065852;27;20047;-52
2021/10/25 09:38:46;;;;;;;4.25;1.23;;;;;;;22.14;33.46;101439.25;5052165;27;20074;-51
2021/10/25 09:50:49;;;;;;;6.45;1.25;;;;;;;22.11;33.55;101442.16;4957693;28;20907;-57
2021/10/25 09:53:29;;;;;;;3.42;1.20;;;;;;;22.12;33.47;101444.78;5029797;28;20055;-55
2021/10/25 09:55:57;;;;;;;2.60;1.00;;;;;;;22.12;33.36;101438.50;5060858;28;20071;-52
2021/10/25 09:58:30;;;;;;;3.47;0.98;;;;;;;22.10;33.61;101435.03;5064978;27;20047;-56
2021/10/25 10:01:03;;;;;;;4.30;1.08;;;;;;;22.14;33.62;101441.94;5061850;28;20047;-53
2021/10/25 10:03:36;;;;;;;7.97;2.53;;;;;;;22.15;33.76;101438.31;5081533;27;20060;-52
2021/10/25 10:06:08;;;;;;;2.78;1.17;;;;;;;22.12;33.70;101438.50;5055824;28;20710;-57
2021/10/25 10:08:42;;;;;;;2.03;0.98;;;;;;;22.17;33.64;101444.50;5072737;27;20075;-59
2021/10/25 10:11:17;;;;;;;2.00;1.20;;;;;;;22.14;33.60;101439.25;5054654;28;20300;-54
2021/10/25 10:13:46;;;;;;;3.65;1.13;;;;;;;22.13;33.45;101445.66;5063505;28;20082;-58
2021/10/25 10:16:28;;;;;;;5.35;1.58;;;;;;;22.12;33.45;101446.63;5063604;27;20063;-57
2021/10/25 10:19:01;;;;;;;3.40;1.50;;;;;;;22.09;33.56;101446.84;5061199;28;20075;-54
2021/10/25 10:21:40;;;;;;;4.95;1.25;;;;;;;22.10;33.60;101444.00;5048126;28;20063;-56
2021/10/25 10:24:20;;;;;;;5.30;1.40;;;;;;;22.10;33.44;101446.72;5077019;27;20066;-52
2021/10/25 10:26:53;;;;;;;3.20;1.20;;;;;;;22.21;33.35;101446.00;5082393;27;20058;-54
2021/10/25 10:29:23;;;;;;;2.03;1.10;;;;;;;22.32;33.42;101448.88;5066474;27;20055;-51
2021/10/25 10:32:04;;;;;;;3.15;1.30;;;;;;;22.39;33.17;101446.56;5068842;27;20060;-51
2021/10/25 10:34:48;;;;;;;4.00;1.20;;;;;;;22.41;33.12;101454.59;5064688;27;20055;-48
2021/10/25 10:37:38;;;;;;;2.47;0.90;;;;;;;22.38;33.22;101445.69;5076341;27;20059;-55
2021/10/25 10:40:11;;;;;;;2.25;1.20;;;;;;;22.36;33.48;101446.81;5059573;28;20131;-55
2021/10/25 10:43:22;;;;;;;1.55;0.85;;;;;;;22.37;33.33;101448.53;5080604;27;20044;-50
2021/10/25 10:46:01;;;;;;;2.45;0.98;;;;;;;22.34;33.38;101433.34;5044390;28;20135;-55
2021/10/25 10:48:32;;;;;;;2.92;1.10;;;;;;;22.22;33.70;101420.66;5069273;27;20071;-54
2021/10/25 10:51:06;;;;;;;2.05;0.73;;;;;;;22.21;33.56;101421.63;5065869;27;20048;-54
2021/10/25 10:53:42;;;;;;;2.17;1.20;;;;;;;22.27;33.58;101437.47;5082241;27;20059;-57
2021/10/25 10:56:22;;;;;;;2.45;0.95;;;;;;;22.21;33.52;101427.03;5054896;28;20077;-53
2021/10/25 10:58:54;;;;;;;2.05;1.02;;;;;;;22.23;33.79;101430.53;5057607;27;20060;-54
2021/10/25 11:01:22;;;;;;;2.28;1.00;;;;;;;22.14;33.78;101412.16;5071302;27;20532;-56
2021/10/25 11:03:59;;;;;;;2.10;0.90;;;;;;;22.26;33.69;101434.88;5041486;28;20056;-50
2021/10/25 11:06:31;;;;;;;3.78;0.98;;;;;;;22.24;33.56;101429.53;5075708;28;20063;-56
2021/10/25 11:09:00;;;;;;;2.55;1.10;;;;;;;22.28;34.22;101446.44;5082514;27;20059;-53
2021/10/25 11:11:28;;;;;;;3.63;1.38;;;;;;;22.27;34.33;101440.16;5075161;27;20659;-51
2021/10/25 11:14:00;;;;;;;2.78;1.45;;;;;;;22.29;34.50;101443.66;5082996;27;20066;-52
2021/10/25 11:16:34;;;;;;;2.72;1.25;;;;;;;22.28;34.53;101443.75;5067198;27;20048;-56
2021/10/25 11:19:04;;;;;;;2.42;1.38;;;;;;;22.31;34.47;101447.09;5077646;27;20058;-53
2021/10/25 11:21:35;;;;;;;9.23;1.20;;;;;;;22.18;34.69;101431.81;5084511;27;20047;-55
2021/10/25 11:24:05;;;;;;;2.20;1.02;;;;;;;22.08;34.85;101418.88;5074205;27;20504;-53
2021/10/25 11:26:36;;;;;;;2.65;1.00;;;;;;;22.29;34.95;101446.38;5076287;27;20435;-55
2021/10/25 11:29:07;;;;;;;2.05;1.00;;;;;;;22.31;34.88;101447.09;5073413;27;20428;-51
2021/10/25 11:31:36;;;;;;;2.92;1.20;;;;;;;22.32;34.98;101447.97;5075565;27;20058;-58
2021/10/25 11:34:08;;;;;;;2.92;1.02;;;;;;;22.34;35.27;101454.16;5077930;27;20059;-56
2021/10/25 11:36:52;;;;;;;1.63;0.80;;;;;;;22.37;35.06;101453.94;5063633;27;20063;-53
2021/10/25 11:39:27;;;;;;;3.40;1.20;;;;;;;22.37;35.19;101457.53;5074756;27;20663;-54
2021/10/25 11:41:55;;;;;;;3.90;1.40;;;;;;;22.35;35.02;101445.91;5061374;28;20052;-57
2021/10/25 11:44:23;;;;;;;2.72;1.00;;;;;;;22.37;35.13;101445.81;5081278;27;20054;-55
2021/10/25 11:46:50;;;;;;;3.83;1.33;;;;;;;22.54;35.01;101444.63;5079463;27;20054;-56
2021/10/25 11:49:23;;;;;;;2.53;1.10;;;;;;;22.60;34.66;101438.75;5065971;28;20722;-54
2021/10/25 11:51:53;;;;;;;3.38;1.25;;;;;;;22.71;34.75;101437.97;5081039;27;20063;-54
2021/10/25 11:54:20;;;;;;;1.75;0.73;;;;;;;22.71;34.88;101428.03;5064931;28;20821;-49
2021/10/25 11:56:50;;;;;;;2.05;0.70;;;;;;;22.81;34.64;101436.34;5071046;28;20059;-56
2021/10/25 11:59:18;;;;;;;2.78;1.10;;;;;;;22.84;34.75;101436.13;5079936;27;20059;-59
2021/10/25 12:01:46;;;;;;;1.98;0.82;;;;;;;22.84;34.91;101428.84;5076104;27;20043;-53
2021/10/25 12:04:14;;;;;;;1.92;1.00;;;;;;;22.86;34.95;101443.19;5063992;27;20051;-57
2021/10/25 12:06:57;;;;;;;2.47;1.00;;;;;;;22.88;34.86;101440.34;5078013;28;20051;-51
2021/10/25 12:09:31;;;;;;;2.15;0.98;;;;;;;22.85;34.98;101427.03;5056648;28;20063;-55
2021/10/25 12:12:05;;;;;;;4.10;1.77;;;;;;;22.86;34.68;101440.47;5077024;27;20130;-54
2021/10/25 12:14:36;;;;;;;2.78;1.00;;;;;;;22.82;34.61;101428.13;5072080;28;20047;-54
2021/10/25 12:17:04;;;;;;;3.55;0.93;;;;;;;22.73;34.83;101426.06;5070800;28;20071;-56
2021/10/25 12:19:32;;;;;;;2.95;1.10;;;;;;;22.75;35.09;101428.69;5074158;27;20492;-52
2021/10/25 12:22:10;;;;;;;1.92;0.80;;;;;;;22.72;35.10;101421.63;5081291;27;20052;-52
2021/10/25 12:24:42;;;;;;;2.65;1.30;;;;;;;22.58;35.27;101400.91;5067271;27;20055;-53
2021/10/25 12:27:14;;;;;;;2.10;0.95;;;;;;;22.68;35.48;101425.53;5074158;28;20699;-54
2021/10/25 12:29:43;;;;;;;3.50;1.00;;;;;;;22.65;35.47;101425.75;5066327;28;20047;-49
2021/10/25 12:32:12;;;;;;;4.88;1.40;;;;;;;22.62;35.50;101425.97;5079806;28;20063;-53
2021/10/25 12:34:54;;;;;;;2.53;1.40;;;;;;;22.14;35.47;101344.41;5070246;28;20059;-56
2021/10/25 12:37:26;;;;;;;3.17;1.02;;;;;;;22.55;35.65;101411.97;5075250;28;20507;-49
2021/10/25 12:39:54;;;;;;;3.05;1.33;;;;;;;22.55;35.76;101414.69;5074293;27;20499;-57
2021/10/25 12:42:23;;;;;;;3.28;1.33;;;;;;;22.53;35.62;101413.91;5084394;27;20407;-56
2021/10/25 12:44:53;;;;;;;1.67;0.85;;;;;;;22.49;35.61;101411.53;5051139;28;20056;-57
2021/10/25 12:47:22;;;;;;;2.15;1.25;;;;;;;22.52;35.60;101424.88;5080525;28;20070;-56
2021/10/25 12:49:51;;;;;;;1.73;0.80;;;;;;;22.47;35.50;101417.09;5080856;28;20055;-55
2021/10/25 12:52:19;;;;;;;2.30;1.10;;;;;;;22.51;35.54;101426.72;5084395;28;20051;-57
2021/10/25 12:54:51;;;;;;;2.47;1.17;;;;;;;22.44;35.36;101419.16;5070753;28;20052;-54
2021/10/25 12:57:21;;;;;;;2.53;1.10;;;;;;;22.48;35.47;101431.50;5063155;28;20063;-57
2021/10/25 13:00:00;;;;;;;3.33;1.20;;;;;;;22.50;35.04;101434.97;5059280;28;20056;-52
2021/10/25 13:02:28;;;;;;;2.70;1.10;;;;;;;22.39;35.08;101411.31;5077647;28;20177;-55
2021/10/25 13:05:08;;;;;;;3.45;1.20;;;;;;;22.49;35.13;101427.81;5082274;28;20059;-58
2021/10/25 13:07:36;;;;;;;2.33;1.00;;;;;;;22.45;34.71;101418.16;5083286;28;21382;-57